Time;durP1;ratioP1;P1;durP2;ratioP2;P2;SDS_P1;SDS_P2;PMS_P1;PMS_P2;Temp;Humidity;BMP_temperature;BMP_pressure;BME280_temperature;BME280_humidity;BME280_pressure;Samples;Min_cycle;Max_cycle;Signal;HPM_P1;HPM_P2
2022/09/02 00:00:58;;;;;;;6.70;4.00;;;;;;;17.01;100.00;99972.09;5073593;28;20062;-65
2022/09/02 00:03:24;;;;;;;6.37;4.20;;;;;;;17.00;100.00;99967.69;5074285;28;20082;-65
2022/09/02 00:05:49;;;;;;;7.15;4.80;;;;;;;16.96;100.00;99968.81;5074314;28;20274;-65
2022/09/02 00:08:15;;;;;;;6.68;4.53;;;;;;;16.95;100.00;99959.03;5071863;28;20145;-66
2022/09/02 00:10:42;;;;;;;6.82;4.65;;;;;;;16.93;100.00;99969.84;5072835;28;20024;-66
2022/09/02 00:13:10;;;;;;;6.43;4.30;;;;;;;16.91;100.00;99970.91;5073754;28;20042;-65
2022/09/02 00:15:36;;;;;;;6.97;4.70;;;;;;;16.87;100.00;99958.59;5073741;28;20024;-65
2022/09/02 00:18:02;;;;;;;7.95;4.57;;;;;;;16.85;100.00;99966.75;5073236;28;20028;-66
2022/09/02 00:20:29;;;;;;;14.55;5.03;;;;;;;16.82;100.00;99958.88;5073563;28;20067;-66
2022/09/02 00:22:55;;;;;;;6.80;4.35;;;;;;;16.76;100.00;99948.50;5073420;28;20025;-65
2022/09/02 00:25:21;;;;;;;7.18;4.82;;;;;;;16.79;100.00;99956.38;5072673;28;20047;-65
2022/09/02 00:27:47;;;;;;;7.47;4.18;;;;;;;16.74;100.00;99952.22;5072424;28;20028;-66
2022/09/02 00:30:13;;;;;;;6.40;4.30;;;;;;;16.70;100.00;99945.31;5072189;28;20015;-65
2022/09/02 00:32:38;;;;;;;6.70;4.47;;;;;;;16.67;100.00;99940.13;5072452;28;20517;-65
2022/09/02 00:35:04;;;;;;;7.97;5.15;;;;;;;16.67;100.00;99946.34;5072358;28;20036;-65
2022/09/02 00:37:30;;;;;;;6.80;4.50;;;;;;;16.74;100.00;99949.53;5071967;28;20028;-65
2022/09/02 00:39:56;;;;;;;7.28;4.25;;;;;;;16.66;100.00;99943.72;5072770;28;20103;-65
2022/09/02 00:42:23;;;;;;;8.25;4.38;;;;;;;16.68;100.00;99956.13;5072813;28;20052;-65
2022/09/02 00:44:48;;;;;;;6.38;4.60;;;;;;;16.67;100.00;99951.69;5072793;28;20043;-66
2022/09/02 00:47:14;;;;;;;6.50;4.47;;;;;;;16.63;100.00;99946.59;5071889;28;20103;-65
2022/09/02 00:49:44;;;;;;;6.97;4.78;;;;;;;16.61;100.00;99951.19;5071889;28;20578;-65
2022/09/02 00:52:23;;;;;;;6.72;4.68;;;;;;;16.65;100.00;99947.38;5071118;28;20032;-66
2022/09/02 00:54:55;;;;;;;6.93;4.43;;;;;;;16.66;100.00;99949.09;5070935;28;20083;-65
2022/09/02 00:57:26;;;;;;;8.93;4.57;;;;;;;16.65;100.00;99948.25;5071686;28;20539;-65
2022/09/02 01:00:38;;;;;;;7.00;4.65;;;;;;;16.58;100.00;99941.50;5071666;28;20517;-66
2022/09/02 01:03:08;;;;;;;5.93;4.18;;;;;;;16.51;100.00;99944.63;5045587;23;20151;-79
2022/09/02 01:05:38;;;;;;;7.95;4.78;;;;;;;16.44;100.00;99935.19;5044895;28;20036;-79
2022/09/02 01:08:06;;;;;;;9.57;5.38;;;;;;;16.47;100.00;99953.81;5035226;28;20412;-79
2022/09/02 01:10:33;;;;;;;9.02;4.82;;;;;;;16.49;100.00;99949.25;5024999;28;20018;-79
2022/09/02 01:13:17;;;;;;;7.05;4.63;;;;;;;16.40;100.00;99942.53;5034262;28;20532;-80
2022/09/02 01:15:50;;;;;;;7.22;4.57;;;;;;;16.54;100.00;99947.16;5020825;28;20041;-80
2022/09/02 01:18:24;;;;;;;7.23;4.63;;;;;;;16.44;100.00;99937.88;5021310;28;20040;-79
2022/09/02 01:20:50;;;;;;;7.32;4.85;;;;;;;16.42;100.00;99942.44;5023607;28;20065;-80
2022/09/02 01:23:17;;;;;;;8.00;4.70;;;;;;;16.34;100.00;99942.03;5022056;28;20040;-79
2022/09/02 01:25:43;;;;;;;7.78;4.63;;;;;;;16.33;100.00;99948.34;5023296;28;20049;-79
2022/09/02 01:28:14;;;;;;;8.75;5.55;;;;;;;16.30;100.00;99945.81;5023648;28;20124;-79
2022/09/02 01:30:45;;;;;;;8.55;4.80;;;;;;;16.28;100.00;99953.09;5024117;28;20469;-79
2022/09/02 01:33:11;;;;;;;6.68;4.80;;;;;;;16.16;100.00;99929.66;5035191;28;20029;-79
2022/09/02 01:35:37;;;;;;;6.82;4.82;;;;;;;16.27;100.00;99957.63;5033237;28;20098;-79
2022/09/02 01:38:03;;;;;;;8.02;4.88;;;;;;;16.37;100.00;99939.16;5024172;28;20140;-79
2022/09/02 01:40:30;;;;;;;7.18;5.25;;;;;;;16.32;100.00;99947.50;5022917;28;20064;-79
2022/09/02 01:43:01;;;;;;;7.57;4.70;;;;;;;16.32;100.00;99943.94;5025251;28;20049;-80
2022/09/02 01:45:28;;;;;;;7.75;5.30;;;;;;;16.34;100.00;99947.41;5025109;28;20033;-79
2022/09/02 01:47:54;;;;;;;7.68;4.90;;;;;;;16.32;100.00;99938.56;5024910;28;20083;-79
2022/09/02 01:50:19;;;;;;;8.85;4.45;;;;;;;16.17;100.00;99917.94;5056942;28;20047;-79
2022/09/02 01:52:45;;;;;;;7.80;5.03;;;;;;;16.15;100.00;99919.84;5041864;28;20033;-79
2022/09/02 01:55:10;;;;;;;6.10;4.80;;;;;;;16.16;100.00;99929.66;5023286;28;20119;-80
2022/09/02 01:57:36;;;;;;;7.82;4.78;;;;;;;16.24;100.00;99948.88;5026556;28;20688;-79
2022/09/02 02:00:05;;;;;;;6.65;4.82;;;;;;;16.20;100.00;99945.50;5025002;28;20037;-79
2022/09/02 02:02:30;;;;;;;8.80;5.45;;;;;;;16.15;100.00;99938.63;5026582;28;20427;-79
2022/09/02 02:04:56;;;;;;;7.28;5.10;;;;;;;16.10;100.00;99938.91;5042692;28;20124;-80
2022/09/02 02:07:23;;;;;;;7.53;5.07;;;;;;;15.98;100.00;99915.44;5042939;28;20030;-80
2022/09/02 02:09:50;;;;;;;8.48;5.20;;;;;;;16.02;100.00;99934.91;5043623;28;20018;-80
2022/09/02 02:12:18;;;;;;;8.77;5.57;;;;;;;16.01;100.00;99939.44;5039117;28;20033;-79
2022/09/02 02:14:43;;;;;;;9.20;5.13;;;;;;;16.01;100.00;99928.72;5021472;28;20105;-79
2022/09/02 02:17:09;;;;;;;9.90;5.93;;;;;;;16.05;100.00;99940.97;5023675;28;20065;-80
2022/09/02 02:19:34;;;;;;;10.93;5.07;;;;;;;16.03;100.00;99936.66;5023566;28;20085;-79
2022/09/02 02:22:00;;;;;;;8.07;5.00;;;;;;;15.91;100.00;99924.81;5025770;28;20049;-80
2022/09/02 02:24:26;;;;;;;6.70;4.65;;;;;;;16.00;100.00;99939.50;5030121;28;20026;-79
2022/09/02 02:26:52;;;;;;;8.02;5.88;;;;;;;15.99;100.00;99932.41;5040464;28;20029;-79
2022/09/02 02:29:18;;;;;;;9.35;5.63;;;;;;;15.96;100.00;99935.28;5050023;28;20017;-79
2022/09/02 02:31:44;;;;;;;7.75;4.95;;;;;;;15.75;100.00;99900.63;5050544;28;20025;-79
2022/09/02 02:34:10;;;;;;;8.73;5.60;;;;;;;15.84;100.00;99926.09;5052063;28;20357;-79
2022/09/02 02:36:38;;;;;;;8.38;5.97;;;;;;;15.89;100.00;99933.88;5052757;28;20060;-80
2022/09/02 02:39:06;;;;;;;7.55;5.25;;;;;;;15.87;100.00;99933.94;5050021;28;20073;-79
2022/09/02 02:41:32;;;;;;;8.73;5.35;;;;;;;15.81;100.00;99926.25;5048261;28;20033;-79
2022/09/02 02:43:58;;;;;;;7.68;5.45;;;;;;;15.72;100.00;99918.69;5043189;28;20467;-80
2022/09/02 02:46:23;;;;;;;9.07;5.70;;;;;;;15.65;100.00;99915.50;5047339;28;20017;-80
2022/09/02 02:48:49;;;;;;;7.85;5.20;;;;;;;15.74;100.00;99935.59;5049097;28;20028;-80
2022/09/02 02:51:14;;;;;;;7.93;5.60;;;;;;;15.72;100.00;99930.31;5050372;28;20029;-80
2022/09/02 02:53:40;;;;;;;8.02;5.50;;;;;;;15.70;100.00;99926.84;5038501;28;20034;-79
2022/09/02 02:56:07;;;;;;;8.02;5.90;;;;;;;15.71;100.00;99931.28;5028362;28;20036;-79
2022/09/02 02:58:33;;;;;;;10.25;5.70;;;;;;;15.67;100.00;99929.69;5044790;28;20417;-80
2022/09/02 03:00:59;;;;;;;11.25;6.18;;;;;;;15.66;100.00;99938.69;5042862;28;20033;-80
2022/09/02 03:03:26;;;;;;;8.85;5.40;;;;;;;15.67;100.00;99934.19;5059728;28;20051;-80
2022/09/02 03:05:52;;;;;;;8.07;5.20;;;;;;;15.58;100.00;99935.53;5046763;28;20033;-80
2022/09/02 03:08:19;;;;;;;9.73;6.07;;;;;;;15.57;100.00;99932.94;5043437;28;20037;-80
2022/09/02 03:10:46;;;;;;;8.18;5.75;;;;;;;15.57;100.00;99932.94;5038137;28;20114;-80
2022/09/02 03:13:13;;;;;;;8.27;5.38;;;;;;;15.57;100.00;99939.19;5031483;28;20025;-79
2022/09/02 03:15:38;;;;;;;8.93;5.45;;;;;;;15.51;100.00;99935.97;5046404;28;20041;-80
2022/09/02 03:18:04;;;;;;;8.70;5.22;;;;;;;15.39;100.00;99924.09;5043849;28;20029;-80
2022/09/02 03:20:30;;;;;;;9.10;5.43;;;;;;;15.32;100.00;99922.63;5043276;28;20026;-80
2022/09/02 03:22:57;;;;;;;7.90;5.60;;;;;;;15.34;100.00;99934.16;5039883;28;20431;-79
2022/09/02 03:25:25;;;;;;;9.15;5.50;;;;;;;15.32;100.00;99929.84;5042452;28;20068;-79
2022/09/02 03:27:50;;;;;;;9.15;5.60;;;;;;;15.39;100.00;99934.81;5042114;28;20029;-79
2022/09/02 03:30:28;;;;;;;9.05;5.28;;;;;;;15.38;100.00;99943.78;5043138;28;20018;-79
2022/09/02 03:32:55;;;;;;;7.95;5.68;;;;;;;15.29;100.00;99938.88;5043846;28;20036;-79
2022/09/02 03:35:22;;;;;;;7.93;5.32;;;;;;;15.26;100.00;99932.81;5039864;28;20025;-79
2022/09/02 03:37:50;;;;;;;7.20;5.35;;;;;;;15.29;100.00;99938.88;5040445;28;20021;-79
2022/09/02 03:40:19;;;;;;;7.63;5.18;;;;;;;15.26;100.00;99935.50;5041707;28;20022;-79
2022/09/02 03:42:45;;;;;;;9.00;5.72;;;;;;;15.25;100.00;99940.00;5024092;28;20403;-79
2022/09/02 03:45:14;;;;;;;6.55;4.90;;;;;;;15.21;100.00;99937.56;5017464;28;20024;-79
2022/09/02 03:47:44;;;;;;;6.80;4.95;;;;;;;15.10;100.00;99918.50;5018268;28;20036;-79
2022/09/02 03:50:10;;;;;;;8.27;5.65;;;;;;;15.16;100.00;99932.44;5026863;28;20045;-79
2022/09/02 03:52:36;;;;;;;7.70;5.20;;;;;;;15.15;100.00;99941.44;5035219;28;20761;-79
2022/09/02 03:55:03;;;;;;;8.95;5.18;;;;;;;15.08;100.00;99931.97;5034969;28;20022;-79
2022/09/02 03:57:29;;;;;;;7.70;5.13;;;;;;;15.09;100.00;99941.75;5020441;28;20033;-80
2022/09/02 03:59:55;;;;;;;9.52;5.20;;;;;;;14.99;100.00;99921.72;5017145;28;20034;-80
2022/09/02 04:02:20;;;;;;;7.57;5.43;;;;;;;15.03;100.00;99934.03;5021249;28;20096;-80
2022/09/02 04:04:46;;;;;;;7.53;5.38;;;;;;;15.11;100.00;99933.63;5039201;28;20112;-79
2022/09/02 04:07:11;;;;;;;11.55;6.45;;;;;;;15.03;100.00;99917.97;5036611;28;20025;-79
2022/09/02 04:09:37;;;;;;;8.00;5.43;;;;;;;15.02;100.00;99935.00;5034999;28;20051;-79
2022/09/02 04:12:04;;;;;;;5.82;4.40;;;;;;;15.03;100.00;99931.34;5036447;28;20044;-80
2022/09/02 04:14:30;;;;;;;7.85;5.57;;;;;;;14.94;100.00;99914.91;5017180;28;20393;-79
2022/09/02 04:16:56;;;;;;;8.88;5.70;;;;;;;14.98;100.00;99925.38;5018060;28;20453;-79
2022/09/02 04:19:21;;;;;;;8.70;5.57;;;;;;;14.88;100.00;99913.41;5015375;28;20030;-79
2022/09/02 04:21:46;;;;;;;11.48;6.65;;;;;;;14.71;100.00;99889.28;5030683;28;20030;-79
2022/09/02 04:24:12;;;;;;;9.55;5.63;;;;;;;14.96;100.00;99929.09;5036394;28;20033;-79
2022/09/02 04:26:38;;;;;;;8.65;5.45;;;;;;;14.90;100.00;99918.66;5035617;28;20024;-79
2022/09/02 04:29:06;;;;;;;9.93;5.70;;;;;;;15.02;100.00;99932.31;5035425;28;20069;-79
2022/09/02 04:31:32;;;;;;;7.70;5.55;;;;;;;15.05;100.00;99931.28;5019977;28;20064;-79
2022/09/02 04:33:58;;;;;;;7.68;4.82;;;;;;;15.04;100.00;99926.88;5034892;28;20504;-79
2022/09/02 04:36:25;;;;;;;9.07;5.38;;;;;;;15.02;100.00;99929.63;5039038;28;20049;-79
2022/09/02 04:38:51;;;;;;;6.72;4.85;;;;;;;14.86;100.00;99907.25;5038686;28;20429;-79
2022/09/02 04:41:23;;;;;;;8.18;5.30;;;;;;;14.92;100.00;99919.47;5039580;28;20503;-79
2022/09/02 04:43:51;;;;;;;7.93;5.30;;;;;;;14.94;100.00;99926.47;5037580;28;20037;-79
2022/09/02 04:46:17;;;;;;;11.82;5.55;;;;;;;14.91;100.00;99926.63;5035907;28;20087;-79
2022/09/02 04:48:44;;;;;;;9.02;5.05;;;;;;;14.94;100.00;99941.69;5033375;28;20456;-79
2022/09/02 04:51:14;;;;;;;8.32;5.35;;;;;;;14.94;100.00;99941.69;5036337;28;20481;-79
2022/09/02 04:53:40;;;;;;;7.53;5.13;;;;;;;14.91;100.00;99926.63;5027974;28;20034;-79
2022/09/02 04:56:08;;;;;;;7.88;5.07;;;;;;;14.91;100.00;99926.63;5024682;28;20033;-79
2022/09/02 04:58:33;;;;;;;6.93;4.82;;;;;;;14.85;100.00;99937.66;5053124;28;20026;-79
2022/09/02 05:01:08;;;;;;;7.03;4.50;;;;;;;14.72;100.00;99908.91;5036083;28;20032;-79
2022/09/02 05:03:35;;;;;;;8.52;5.72;;;;;;;14.80;100.00;99939.69;5036384;28;20076;-79
2022/09/02 05:06:03;;;;;;;7.07;4.95;;;;;;;14.82;100.00;99937.81;5035298;28;20033;-79
2022/09/02 05:08:28;;;;;;;7.30;5.28;;;;;;;14.70;100.00;99922.38;5038167;28;20030;-79
2022/09/02 05:10:54;;;;;;;7.45;5.28;;;;;;;14.76;100.00;99931.91;5036086;28;20025;-79
2022/09/02 05:13:20;;;;;;;8.20;5.38;;;;;;;14.69;100.00;99920.66;5028467;28;20044;-79
2022/09/02 05:15:45;;;;;;;8.60;6.18;;;;;;;14.70;100.00;99932.19;5018699;28;20112;-79
2022/09/02 05:18:11;;;;;;;6.47;4.53;;;;;;;14.67;100.00;99916.31;5016442;28;20057;-79
2022/09/02 05:20:42;;;;;;;8.70;5.65;;;;;;;14.80;100.00;99941.50;5017969;28;20018;-80
2022/09/02 05:23:10;;;;;;;10.80;5.65;;;;;;;14.76;100.00;99931.91;5020640;28;20432;-80
2022/09/02 05:25:36;;;;;;;12.07;5.38;;;;;;;14.80;100.00;99930.78;5019844;28;20068;-80
2022/09/02 05:28:02;;;;;;;9.95;5.10;;;;;;;14.95;100.00;99943.41;5020971;28;20033;-80
2022/09/02 05:30:27;;;;;;;6.80;4.68;;;;;;;14.99;100.00;99940.47;5032724;28;20029;-80
2022/09/02 05:32:53;;;;;;;7.63;5.32;;;;;;;15.15;100.00;99935.22;5038613;28;20100;-80
2022/09/02 05:35:18;;;;;;;7.50;5.32;;;;;;;15.26;100.00;99933.69;5039397;28;20818;-80
2022/09/02 05:37:44;;;;;;;8.23;5.40;;;;;;;15.41;100.00;99943.63;5037359;28;20029;-79
2022/09/02 05:40:11;;;;;;;8.00;5.43;;;;;;;15.46;100.00;99948.75;5037085;28;20025;-78
2022/09/02 05:42:38;;;;;;;8.52;5.30;;;;;;;15.46;100.00;99936.22;5036772;28;20022;-79
2022/09/02 05:45:05;;;;;;;10.02;6.88;;;;;;;15.62;100.00;99946.97;5032009;28;20033;-79
2022/09/02 05:47:32;;;;;;;8.93;6.30;;;;;;;15.65;100.00;99925.34;5037859;28;20017;-79
2022/09/02 05:49:59;;;;;;;8.57;5.78;;;;;;;15.85;100.00;99948.41;5042458;28;20033;-79
2022/09/02 05:52:26;;;;;;;11.30;5.65;;;;;;;15.83;100.00;99903.75;5043472;28;20116;-80
2022/09/02 05:54:51;;;;;;;9.75;5.10;;;;;;;16.61;100.00;99927.03;5058667;28;20045;-79
2022/09/02 05:57:17;;;;;;;8.13;5.20;;;;;;;17.66;100.00;99923.22;5031528;28;20436;-79
2022/09/02 05:59:43;;;;;;;9.00;5.55;;;;;;;18.92;100.00;99940.06;5024952;28;20179;-79
2022/09/02 06:02:11;;;;;;;8.80;5.97;;;;;;;18.88;93.59;99930.47;5035980;28;20085;-80
2022/09/02 06:04:47;;;;;;;7.32;5.72;;;;;;;18.43;91.61;99936.22;5040892;28;20044;-79
2022/09/02 06:07:13;;;;;;;9.18;5.18;;;;;;;18.03;92.32;99921.75;5035115;28;20081;-79
2022/09/02 06:09:40;;;;;;;7.18;5.40;;;;;;;17.81;93.46;99924.97;5027193;28;20044;-79
2022/09/02 06:12:07;;;;;;;8.35;4.78;;;;;;;17.75;95.71;99928.06;5016717;28;20049;-79
2022/09/02 06:14:33;;;;;;;8.18;4.78;;;;;;;17.91;95.39;99926.09;5023706;28;20069;-79
2022/09/02 06:16:59;;;;;;;6.47;4.07;;;;;;;18.03;94.25;99929.84;5015258;28;20462;-79
2022/09/02 06:19:26;;;;;;;8.50;5.13;;;;;;;18.08;94.62;99931.28;5021382;28;20040;-80
2022/09/02 06:21:53;;;;;;;8.23;5.50;;;;;;;18.29;95.62;99937.97;5019051;28;20029;-80
2022/09/02 06:24:18;;;;;;;6.38;4.38;;;;;;;18.51;95.02;99928.50;5028364;28;20025;-80
2022/09/02 06:26:44;;;;;;;6.45;4.35;;;;;;;18.88;93.70;99933.19;5020392;28;20049;-80
2022/09/02 06:29:10;;;;;;;7.28;4.68;;;;;;;19.96;90.84;99924.59;5028829;28;20026;-80
2022/09/02 06:31:36;;;;;;;5.75;3.90;;;;;;;21.77;82.63;99928.66;5027409;28;20021;-80
2022/09/02 06:34:04;;;;;;;7.90;4.15;;;;;;;23.04;71.90;99937.94;5028831;28;20021;-80
2022/09/02 06:36:31;;;;;;;4.97;3.28;;;;;;;22.81;69.21;99930.88;5012865;28;20030;-80
2022/09/02 06:38:59;;;;;;;4.78;3.35;;;;;;;22.28;69.38;99931.72;5013725;28;20600;-80
2022/09/02 06:41:29;;;;;;;6.75;3.83;;;;;;;21.65;72.03;99934.16;5030393;28;20465;-80
2022/09/02 06:43:56;;;;;;;7.20;3.40;;;;;;;21.30;74.66;99925.25;5020164;28;20416;-80
2022/09/02 06:46:28;;;;;;;6.70;3.85;;;;;;;21.55;74.37;99930.44;5030274;28;20481;-80
2022/09/02 06:48:53;;;;;;;5.35;3.20;;;;;;;21.48;73.87;99919.22;5028522;28;20091;-80
2022/09/02 06:51:39;;;;;;;5.68;3.25;;;;;;;21.51;74.16;99926.28;5031137;28;20465;-81
2022/09/02 06:54:07;;;;;;;5.47;3.70;;;;;;;21.42;74.63;99911.59;5022572;28;20385;-79
2022/09/02 06:56:34;;;;;;;3.97;3.17;;;;;;;21.35;74.78;99925.75;5028979;28;20129;-79
2022/09/02 06:59:00;;;;;;;4.80;2.83;;;;;;;21.71;75.19;99922.84;5011547;28;20081;-79
2022/09/02 07:01:28;;;;;;;4.95;3.30;;;;;;;22.46;70.71;99929.34;5027255;28;20429;-79
2022/09/02 07:06:40;;;;;;;5.57;3.08;;;;;;;24.92;60.25;99914.69;5029032;28;20052;-80
2022/09/02 07:09:08;;;;;;;6.95;2.58;;;;;;;25.76;54.52;99906.56;5024285;28;20037;-79
2022/09/02 07:11:34;;;;;;;4.65;2.50;;;;;;;26.49;51.37;99913.00;5033841;28;20044;-79
2022/09/02 07:14:00;;;;;;;4.63;2.50;;;;;;;26.86;50.74;99916.47;5032634;28;20029;-79
2022/09/02 07:16:30;;;;;;;5.30;2.58;;;;;;;27.15;47.63;99917.09;5019663;28;20075;-80
2022/09/02 07:18:56;;;;;;;3.55;2.20;;;;;;;27.10;48.54;99916.69;5013757;28;20025;-80
2022/09/02 07:21:22;;;;;;;4.70;1.92;;;;;;;27.34;47.73;99916.97;5026857;28;20392;-80
2022/09/02 07:23:48;;;;;;;5.55;2.30;;;;;;;27.44;47.21;99908.66;5033172;28;20026;-80
2022/09/02 07:26:15;;;;;;;4.78;2.00;;;;;;;27.48;46.62;99910.06;5017162;28;20144;-79
2022/09/02 07:28:42;;;;;;;4.30;1.95;;;;;;;27.20;47.50;99910.16;5012305;28;20124;-80
2022/09/02 07:31:12;;;;;;;3.67;1.90;;;;;;;27.31;48.68;99911.81;5027365;28;20032;-80
2022/09/02 07:33:38;;;;;;;3.67;1.70;;;;;;;27.14;45.76;99918.13;5021087;28;20030;-80
2022/09/02 07:36:04;;;;;;;3.30;1.65;;;;;;;27.14;46.24;99896.25;5017552;28;20115;-80
2022/09/02 07:38:31;;;;;;;5.18;2.00;;;;;;;27.20;46.58;99901.94;5032225;28;20091;-79
2022/09/02 07:40:56;;;;;;;3.28;1.60;;;;;;;27.56;45.83;99910.97;5029455;28;20022;-79
2022/09/02 07:43:22;;;;;;;2.97;1.42;;;;;;;27.48;44.69;99905.44;5029025;28;20041;-79
2022/09/02 07:45:49;;;;;;;2.13;1.45;;;;;;;27.70;44.10;99913.13;5033717;28;20104;-79
2022/09/02 07:48:17;;;;;;;3.38;1.35;;;;;;;27.67;44.64;99891.59;5029895;28;20026;-79
2022/09/02 07:50:42;;;;;;;2.33;1.35;;;;;;;27.52;44.34;99904.13;5027969;28;20038;-79
2022/09/02 07:53:08;;;;;;;2.78;1.20;;;;;;;27.60;44.07;99908.78;5025690;28;20021;-79
2022/09/02 07:55:35;;;;;;;2.72;1.40;;;;;;;27.72;44.74;99915.69;5033092;28;20034;-79
2022/09/02 07:58:02;;;;;;;2.35;1.30;;;;;;;27.79;44.39;99914.03;5028157;28;20048;-79
2022/09/02 08:00:28;;;;;;;2.47;1.13;;;;;;;27.93;44.01;99913.47;5026881;28;20073;-80
2022/09/02 08:02:54;;;;;;;4.15;1.50;;;;;;;28.00;43.12;99912.66;5022735;28;20095;-79
2022/09/02 08:05:20;;;;;;;2.75;1.50;;;;;;;28.09;42.05;99925.34;5023808;28;20025;-79
2022/09/02 08:07:46;;;;;;;4.90;1.50;;;;;;;28.09;42.42;99906.19;5029055;28;20041;-79
2022/09/02 08:10:12;;;;;;;6.03;1.50;;;;;;;28.44;42.96;99911.50;5031505;28;20029;-79
2022/09/02 08:12:41;;;;;;;3.10;1.00;;;;;;;28.85;42.75;99915.22;5035407;28;20033;-79
2022/09/02 08:15:09;;;;;;;6.95;1.38;;;;;;;29.21;41.30;99918.56;5038225;28;20064;-79
2022/09/02 08:17:35;;;;;;;2.13;1.10;;;;;;;29.27;41.03;99917.88;5032175;28;20428;-79
2022/09/02 08:20:01;;;;;;;1.73;1.05;;;;;;;29.38;40.00;99912.03;5022287;28;20026;-79
2022/09/02 08:22:32;;;;;;;1.73;0.88;;;;;;;29.23;38.66;99909.13;5035672;28;20029;-79
2022/09/02 08:24:58;;;;;;;1.95;0.73;;;;;;;29.55;40.72;99919.22;5035200;28;20136;-79
2022/09/02 08:27:25;;;;;;;1.92;0.98;;;;;;;29.80;40.64;99909.09;5036252;28;20342;-79
2022/09/02 08:29:50;;;;;;;1.77;1.00;;;;;;;29.76;39.70;99915.97;5032665;28;20026;-80
2022/09/02 08:32:16;;;;;;;2.85;1.30;;;;;;;29.80;39.01;99907.22;5031559;28;20028;-76
2022/09/02 08:34:44;;;;;;;2.20;1.10;;;;;;;29.81;39.49;99913.56;5018045;28;20108;-79
2022/09/02 08:37:10;;;;;;;2.33;1.23;;;;;;;30.15;39.83;99901.28;5022846;28;20057;-79
2022/09/02 08:39:36;;;;;;;2.53;1.00;;;;;;;30.45;38.62;99910.63;5036529;28;20029;-79
2022/09/02 08:42:23;;;;;;;2.05;0.75;;;;;;;30.47;37.66;99895.69;5038671;28;20348;-79
2022/09/02 08:44:54;;;;;;;1.70;0.90;;;;;;;30.78;37.29;99893.81;5038381;28;20026;-80
2022/09/02 08:47:25;;;;;;;2.30;0.80;;;;;;;30.86;36.20;99898.38;5040531;28;20100;-79
2022/09/02 08:49:55;;;;;;;3.65;0.90;;;;;;;30.75;36.16;99894.16;5041598;28;20044;-79
2022/09/02 08:52:38;;;;;;;2.75;0.82;;;;;;;30.74;37.20;99895.16;5042173;28;20539;-79
2022/09/02 08:55:06;;;;;;;6.03;0.95;;;;;;;30.96;38.26;99900.91;5022531;28;20085;-79
2022/09/02 08:57:32;;;;;;;1.83;0.90;;;;;;;30.87;37.19;99887.22;5038660;28;20088;-79
2022/09/02 09:00:00;;;;;;;1.98;1.00;;;;;;;31.01;36.56;99887.47;5023397;28;20014;-79
2022/09/02 09:02:55;;;;;;;1.23;0.75;;;;;;;31.15;35.24;99878.44;5028734;28;20036;-79
2022/09/02 09:05:30;;;;;;;2.90;0.85;;;;;;;31.23;35.92;99875.63;5035503;28;20048;-79
2022/09/02 09:08:11;;;;;;;1.42;0.80;;;;;;;31.38;34.83;99877.41;5039170;28;20060;-79
2022/09/02 09:10:53;;;;;;;1.25;0.75;;;;;;;31.52;35.95;99881.22;5039987;28;20029;-79
2022/09/02 09:13:25;;;;;;;1.27;0.70;;;;;;;31.41;34.42;99878.94;5030284;28;20050;-80
2022/09/02 09:15:56;;;;;;;1.10;0.60;;;;;;;31.59;35.79;99877.56;5017825;28;20030;-80
2022/09/02 09:18:37;;;;;;;1.95;0.85;;;;;;;31.79;34.73;99880.59;5017936;28;20030;-79
2022/09/02 09:21:03;;;;;;;3.60;0.90;;;;;;;32.06;35.07;99864.31;5038857;28;20040;-79
2022/09/02 09:23:32;;;;;;;1.73;1.10;;;;;;;32.16;33.20;99875.03;5038713;28;20476;-79
2022/09/02 09:26:07;;;;;;;1.08;0.65;;;;;;;32.24;33.55;99871.34;5039321;28;20033;-79
2022/09/02 09:28:45;;;;;;;3.25;0.93;;;;;;;32.20;36.33;99859.84;5043694;28;20293;-80
2022/09/02 09:31:25;;;;;;;1.88;0.70;;;;;;;32.26;33.35;99866.50;5048213;22;20103;-65
2022/09/02 09:33:59;;;;;;;2.55;0.80;;;;;;;32.57;33.89;99867.13;5029934;28;20102;-65
2022/09/02 09:36:48;;;;;;;1.00;0.60;;;;;;;32.32;32.48;99858.31;5030736;28;20413;-65
2022/09/02 09:39:28;;;;;;;1.77;0.70;;;;;;;32.25;32.48;99857.38;5030532;28;20056;-64
2022/09/02 09:42:02;;;;;;;1.30;0.65;;;;;;;32.34;31.81;99850.69;5030984;28;20489;-64
2022/09/02 09:44:39;;;;;;;2.30;0.80;;;;;;;32.37;31.75;99853.09;5030854;28;20029;-64
2022/09/02 09:47:18;;;;;;;1.67;0.60;;;;;;;32.18;32.25;99856.41;5031122;28;20043;-65
2022/09/02 09:49:44;;;;;;;2.95;0.77;;;;;;;32.30;31.22;99846.63;5030456;28;20025;-65
2022/09/02 09:52:10;;;;;;;2.55;0.90;;;;;;;31.81;30.22;99849.09;5032358;28;20083;-65
2022/09/02 09:54:35;;;;;;;1.20;0.80;;;;;;;31.69;30.38;99849.75;5031809;28;20435;-65
2022/09/02 09:57:20;;;;;;;1.00;0.40;;;;;;;32.22;29.07;99846.75;5031037;28;20025;-65
2022/09/02 09:59:48;;;;;;;0.85;0.50;;;;;;;32.35;26.90;99840.53;5030644;28;20396;-65
2022/09/02 10:02:22;;;;;;;2.38;0.80;;;;;;;31.97;30.59;99826.06;5023832;28;20481;-65
2022/09/02 10:04:48;;;;;;;0.70;0.50;;;;;;;31.73;27.70;99824.44;5039558;28;20032;-64
2022/09/02 10:07:33;;;;;;;1.67;0.90;;;;;;;31.13;27.03;99836.53;5050107;28;20039;-64
2022/09/02 10:10:15;;;;;;;2.78;0.77;;;;;;;31.29;31.47;99830.88;5048576;28;20096;-65
2022/09/02 10:12:40;;;;;;;1.30;0.70;;;;;;;32.02;30.02;99818.97;5048844;28;20056;-65
2022/09/02 10:15:07;;;;;;;1.23;0.47;;;;;;;32.14;26.93;99813.81;5045712;28;20028;-65
2022/09/02 10:18:04;;;;;;;2.85;0.75;;;;;;;32.33;27.31;99821.47;5049389;28;20676;-65
2022/09/02 10:20:49;;;;;;;0.85;0.50;;;;;;;31.88;28.15;99803.31;5049763;28;20048;-65
2022/09/02 10:23:36;;;;;;;1.13;0.60;;;;;;;31.88;26.75;99803.31;5049723;28;20506;-65
2022/09/02 10:26:24;;;;;;;1.15;0.75;;;;;;;31.93;28.63;99802.72;5050237;28;20474;-64
2022/09/02 10:29:12;;;;;;;1.42;0.73;;;;;;;32.13;29.28;99798.34;5048385;28;20384;-65
2022/09/02 10:32:03;;;;;;;1.65;0.80;;;;;;;32.70;29.05;99790.13;5047785;28;20048;-64
2022/09/02 10:34:31;;;;;;;1.15;0.57;;;;;;;33.10;26.47;99781.19;5015702;28;20025;-65
2022/09/02 10:37:13;;;;;;;0.93;0.70;;;;;;;33.39;28.32;99781.84;5048649;28;20036;-64
2022/09/02 10:39:48;;;;;;;1.15;0.60;;;;;;;33.07;26.85;99782.47;5048921;28;20029;-64
2022/09/02 10:42:42;;;;;;;1.65;1.25;;;;;;;32.94;28.09;99776.84;5049230;28;20036;-65
2022/09/02 10:45:23;;;;;;;1.60;0.80;;;;;;;33.25;26.63;99773.69;5053510;28;20028;-64
2022/09/02 10:48:07;;;;;;;2.08;0.60;;;;;;;33.45;26.47;99771.09;5054485;28;20029;-65
2022/09/02 10:50:52;;;;;;;3.83;0.70;;;;;;;32.48;28.16;99769.13;5053964;28;20033;-64
2022/09/02 10:53:36;;;;;;;1.73;0.80;;;;;;;32.66;27.24;99769.53;5047591;28;20056;-64
2022/09/02 10:56:06;;;;;;;1.10;0.70;;;;;;;32.59;26.91;99765.84;5033636;28;20108;-65
2022/09/02 10:58:56;;;;;;;2.53;0.75;;;;;;;33.12;28.34;99774.44;5033806;28;20124;-65
2022/09/02 11:01:29;;;;;;;0.63;0.60;;;;;;;33.62;28.42;99770.59;5033579;28;20033;-65
2022/09/02 11:04:00;;;;;;;1.17;0.60;;;;;;;33.98;26.27;99764.84;5050477;28;20047;-65
2022/09/02 11:06:34;;;;;;;1.10;0.50;;;;;;;33.97;28.53;99769.50;5054206;28;20020;-64
2022/09/02 11:09:06;;;;;;;0.93;0.50;;;;;;;34.43;29.42;99769.75;5054405;28;20033;-65
2022/09/02 11:11:35;;;;;;;;;;;;;;;34.48;28.74;99764.44;5054547;28;20071;-65
2022/09/02 11:14:16;;;;;;;2.60;0.70;;;;;;;34.38;27.30;99755.66;5054023;28;19936;-64
2022/09/02 11:16:50;;;;;;;1.77;0.50;;;;;;;34.29;26.80;99759.66;5054027;28;20028;-64
2022/09/02 11:19:24;;;;;;;1.35;0.60;;;;;;;34.13;27.76;99749.00;5053967;28;20029;-65
2022/09/02 11:22:08;;;;;;;2.25;0.50;;;;;;;34.28;27.33;99755.22;5053947;28;20055;-64
2022/09/02 11:24:46;;;;;;;2.35;0.73;;;;;;;34.54;28.75;99761.69;5053745;28;20082;-64
2022/09/02 11:27:32;;;;;;;0.85;0.65;;;;;;;34.69;28.58;99753.22;5054042;28;20024;-64
2022/09/02 11:30:17;;;;;;;0.93;0.57;;;;;;;35.16;26.64;99755.78;5053689;28;20102;-64
2022/09/02 11:32:46;;;;;;;0.85;0.55;;;;;;;35.05;25.76;99753.69;5053781;28;20067;-64
2022/09/02 11:35:21;;;;;;;1.33;0.60;;;;;;;35.34;27.56;99749.63;5053163;28;20051;-63
2022/09/02 11:38:02;;;;;;;1.27;0.60;;;;;;;35.59;27.58;99757.03;5053272;28;20028;-64
2022/09/02 11:40:36;;;;;;;1.45;0.60;;;;;;;35.36;26.14;99745.56;5052813;28;20032;-64
2022/09/02 11:43:35;;;;;;;1.63;0.60;;;;;;;35.25;27.00;99749.00;5053085;28;20021;-64